Amsterdam, Missouri
Current Conditions -  °F | °C
As of 6:53 AM on Friday 31 Oct 2014 (Local Time) from KOJC Reporting Station
Overcast Overcast  
Wind Chill: 30°   Ceiling: 2400
Heat Index: 39°   Visibility: 10mi
Dew Point: 29°   Wind: 18mph
Humidity: 67%   Direction: 10°N
Pressure: 30.37"   Gusts: NA
Location:  38.35°N, 94.59°W
Report Text: KOJC 311153Z 01016KT 10SM OVC024 04/M02 A3037 RMK AO2 PK WND 36026/1110 SLP285 70001 T00391017 10100 20039 51033
Loading
Personal Weather Stations






























Interactive Weather Map
Tropical Storm Tracking
New forecast layout! Learn more

10-Day Weather Forecast

Advertisements
Track Severe Weather on mobile